PDK weather

DeKalb Peachtree Airport
Atlanta, Georgia, United States

Public forecast

Using degrees Fahrenheit for public forecast. Weather courtesy of forecast.io.

Current aviation weather report (METAR) for DeKalb Peachtree Airport

Retrieved 2019/10/16 21:53 UTC (1 hour ago):

KPDK 162153Z 33010KT 10SM CLR 19/07 A2988 RMK AO2 SLP109 T01890067

Aviation forecast (TAF) for DeKalb Peachtree Airport

Retrieved 2019/10/16 18:22 UTC (5 hours ago):

TAF KPDK 161720Z 1618/1718 30015G25KT P6SM SCT035 SCT250 TEMPO 1618/1619 BKN030 FM162000 31015G25KT P6SM FEW040 SCT250 FM170100 31009KT P6SM SKC